Aeroporto :
LOGIN :

Iscrizione | Disclaimer

   EN    FR    IT 

 










Sommario :    VFR   VFR Marginale   IFR   IFR Intensivo   IFR Molto Intensivo
Visibilità : 
Base nubi : 
>= 8 km
>= 3000ft
5 / 8 km
1000 / 3000 ft
1500m / 5 km
500 / 1000 ft
800 / 1500m
200 / 500 ft
< 800m
< 200 ft
Simboli :   Temporali  Nebbia  Neve Forte  Precipitazioni Forti  Vento > 20 kt
SIGMETs :   Varie  Temporali  Ghiacco  Turbolenza  Onda orograficha  Ceneri Vulcaniche







- Altitudine del aeroporto : 171 ft
- Codice IATA : EGC
- Carte del aeroporto


LFBE - Bergerac

ULTIMO METAR :
  • 181600Z AUTO 16005KT 130V190 CAVOK 17/06 Q1018 BECMG 16015KT

METARs OBSOLETI :
  • 181530Z AUTO 17005KT 140V230 //// R27///// // NSC 18/07 Q1018
  • 181500Z AUTO 17006KT 140V200 CAVOK 18/07 Q1018 NOSIG
  • 181430Z AUTO 17007KT 130V220 CAVOK 18/06 Q1018 NOSIG
  • 181400Z AUTO 15008KT 120V180 CAVOK 17/07 Q1018 NOSIG
  • 181330Z AUTO 15009KT 130V190 CAVOK 17/07 Q1019 NOSIG

TAF TAF LFBE
Valido dal 18 a 12 ore il 19 a 12 ore UTC


181100Z 1812/1912 16015KT CAVOK
BECMG 1818/1821 13005KT
BECMG 1902/1904 BKN015
PROB40
TEMPO 1904/1908 BKN010
Nessun NOTAM noto per questo aeroporto.



MetMap, La meteo Aeronautica in un colpo d'occhio ! - Copyright ORBIFLY Dicembre 2007 - Disclaimer

ORBIFLY MET'MAP TEAM :

Programmazione e sviluppo : Alexandra Zaïnal
Concezione e sviluppo : Baudouin d'Aumeries
Co-Programmazione e sviluppo : Marc-Olivier Méhu
Supporto tecnico e logistico : Manuel Goepfert
Aiuto per la traduzione : Arnaldo La Scala

Contatto : metmap@orbifly.com




FONTI E CREDITI :

   NOAA